createdAt,value
2022-11-12T00:02:28.889Z,90.25
2022-11-12T00:08:39.630Z,91.09
2022-11-12T00:14:50.587Z,92.03
2022-11-12T00:21:01.606Z,92.16
2022-11-12T00:27:13.888Z,92.15
2022-11-12T00:33:24.568Z,91.95
2022-11-12T00:39:36.658Z,92.29
2022-11-12T00:45:48.967Z,91.60
2022-11-12T00:51:59.907Z,92.88
2022-11-12T00:58:10.788Z,92.81
2022-11-12T01:04:22.874Z,92.81
2022-11-12T01:10:36.627Z,92.69
2022-11-12T01:16:48.007Z,93.12
2022-11-12T01:22:59.087Z,92.44
2022-11-12T01:29:10.468Z,93.47
2022-11-12T01:35:22.887Z,93.46
2022-11-12T01:41:37.227Z,93.10
2022-11-12T01:47:52.126Z,93.33
2022-11-12T01:54:06.309Z,93.03
2022-11-12T02:00:18.328Z,92.71
2022-11-12T02:06:31.682Z,92.12
2022-11-12T02:13:02.847Z,92.49
2022-11-12T02:19:16.755Z,92.21
2022-11-12T02:25:28.735Z,91.62
2022-11-12T02:31:41.057Z,91.57
2022-11-12T02:37:52.175Z,92.14
2022-11-12T02:44:02.595Z,92.21
2022-11-12T02:50:14.425Z,92.72
2022-11-12T02:56:25.099Z,92.20
2022-11-12T03:02:43.025Z,91.56
2022-11-12T03:08:53.945Z,92.08
2022-11-12T03:15:06.624Z,91.97
2022-11-12T03:21:17.136Z,91.90
2022-11-12T03:27:28.155Z,92.20
2022-11-12T03:33:39.995Z,92.37
2022-11-12T03:39:52.105Z,91.90
2022-11-12T03:46:04.197Z,92.08
2022-11-12T03:52:15.327Z,92.14
2022-11-12T03:58:26.436Z,91.98
2022-11-12T04:04:55.916Z,92.12
2022-11-12T04:11:14.173Z,92.32
2022-11-12T04:17:44.016Z,92.31
2022-11-12T04:23:55.206Z,92.19
2022-11-12T04:30:19.677Z,92.66
2022-11-12T04:36:30.317Z,92.21
2022-11-12T04:43:10.646Z,92.91
2022-11-12T04:49:21.906Z,92.57
2022-11-12T04:55:33.648Z,92.89
2022-11-12T05:01:44.727Z,93.32
2022-11-12T05:07:55.539Z,93.06
2022-11-12T05:14:09.418Z,93.26
2022-11-12T05:20:20.328Z,93.43
2022-11-12T05:26:31.568Z,94.47
2022-11-12T05:32:42.075Z,94.94
2022-11-12T05:38:53.091Z,94.24
2022-11-12T05:45:05.177Z,94.76
2022-11-12T05:51:16.846Z,94.18
2022-11-12T05:57:28.307Z,93.96
2022-11-12T06:03:39.373Z,94.19
2022-11-12T06:09:50.528Z,94.25
2022-11-12T06:16:01.657Z,93.89
2022-11-12T06:22:12.597Z,93.42
2022-11-12T06:28:24.230Z,92.94
2022-11-12T06:34:35.694Z,93.87
2022-11-12T06:40:47.568Z,93.64
2022-11-12T06:46:58.828Z,93.38
2022-11-12T06:53:09.708Z,92.82
2022-11-12T06:59:20.619Z,92.29
2022-11-12T07:05:31.608Z,88.01
2022-11-12T07:11:42.678Z,84.99
2022-11-12T07:17:53.888Z,84.15
2022-11-12T07:24:04.830Z,82.71
2022-11-12T07:30:17.119Z,81.08
2022-11-12T07:36:28.591Z,80.03
2022-11-12T07:42:40.011Z,78.44
2022-11-12T07:48:50.970Z,75.21
2022-11-12T07:55:03.003Z,71.88
2022-11-12T08:01:35.072Z,69.48
2022-11-12T08:07:47.847Z,67.24
2022-11-12T08:13:59.018Z,64.46
2022-11-12T08:20:10.518Z,62.46
2022-11-12T08:26:22.116Z,62.89
2022-11-12T08:32:34.162Z,60.92
2022-11-12T08:38:45.079Z,57.74
2022-11-12T08:44:55.876Z,56.08
2022-11-12T08:51:08.325Z,54.82
2022-11-12T08:57:18.999Z,54.18
2022-11-12T09:03:30.710Z,52.63
2022-11-12T09:09:42.350Z,53.13
2022-11-12T09:15:53.018Z,52.67
2022-11-12T09:22:04.308Z,53.73
2022-11-12T09:28:19.819Z,53.69
2022-11-12T09:34:31.180Z,53.95
2022-11-12T09:40:54.280Z,54.67
2022-11-12T09:47:14.727Z,55.32
2022-11-12T09:53:50.840Z,55.06
2022-11-12T10:00:04.082Z,54.02
2022-11-12T10:06:28.168Z,54.90
2022-11-12T10:13:01.244Z,56.12
2022-11-12T10:19:30.239Z,56.39
2022-11-12T10:25:45.918Z,58.15
2022-11-12T10:31:57.119Z,58.82
2022-11-12T10:38:17.288Z,58.10
2022-11-12T10:44:28.470Z,59.70
2022-11-12T10:50:43.368Z,58.73
2022-11-12T10:56:55.575Z,59.79
2022-11-12T11:03:19.898Z,60.14
2022-11-12T11:09:33.947Z,61.23
2022-11-12T11:16:02.787Z,60.46
2022-11-12T11:22:18.008Z,62.03
2022-11-12T11:28:35.559Z,62.76
2022-11-12T11:35:23.229Z,61.89
2022-11-12T11:41:55.699Z,61.65
2022-11-12T11:48:16.027Z,61.71
2022-11-12T11:54:58.707Z,60.99
2022-11-12T12:01:39.529Z,61.05
2022-11-12T12:08:13.249Z,61.49
2022-11-12T12:14:42.776Z,61.27
2022-11-12T12:21:05.056Z,61.41
2022-11-12T12:27:36.127Z,61.42
2022-11-12T12:33:58.738Z,62.54
2022-11-12T12:40:45.197Z,62.25
2022-11-12T12:47:01.148Z,63.18
2022-11-12T12:53:30.408Z,63.47
2022-11-12T12:59:41.719Z,63.44
2022-11-12T13:06:08.156Z,64.51
2022-11-12T13:12:18.808Z,64.35
2022-11-12T13:18:38.500Z,64.79
2022-11-12T13:25:09.187Z,65.23
2022-11-12T13:31:30.001Z,65.44
2022-11-12T13:37:45.710Z,65.88
2022-11-12T13:43:57.355Z,65.91
2022-11-12T13:50:16.440Z,66.39
2022-11-12T13:56:31.149Z,67.38
2022-11-12T14:02:48.381Z,68.15
2022-11-12T14:09:13.409Z,69.19
2022-11-12T14:15:47.237Z,69.39
2022-11-12T14:22:13.723Z,70.98
2022-11-12T14:28:27.849Z,72.11
2022-11-12T14:34:38.969Z,74.52
2022-11-12T14:41:10.575Z,76.88
2022-11-12T14:47:23.431Z,79.14
2022-11-12T14:53:58.951Z,81.65
2022-11-12T15:00:38.079Z,82.91
2022-11-12T15:06:53.937Z,84.18
2022-11-12T15:13:10.978Z,84.14
2022-11-12T15:19:29.060Z,85.13
2022-11-12T15:25:41.081Z,85.31
2022-11-12T15:31:57.519Z,86.50
2022-11-12T15:38:22.849Z,87.04
2022-11-12T15:44:37.450Z,87.07
2022-11-12T15:50:49.334Z,88.66
2022-11-12T15:57:01.227Z,88.42
2022-11-12T16:03:19.499Z,89.35
2022-11-12T16:09:31.194Z,89.71
2022-11-12T16:15:43.328Z,90.67
2022-11-12T16:21:54.820Z,90.57
2022-11-12T16:28:14.619Z,91.84
2022-11-12T16:34:25.229Z,92.06
2022-11-12T16:40:37.368Z,92.98
2022-11-12T16:46:48.299Z,93.64
2022-11-12T16:52:59.319Z,93.75
2022-11-12T16:59:15.909Z,93.70
2022-11-12T17:05:27.328Z,94.24
2022-11-12T17:11:38.849Z,94.55
2022-11-12T17:17:49.319Z,94.67
2022-11-12T17:23:59.915Z,94.70
2022-11-12T17:30:12.280Z,94.84
2022-11-12T17:36:25.849Z,94.90
2022-11-12T17:42:36.300Z,95.25
2022-11-12T17:48:47.451Z,94.59
2022-11-12T17:54:58.399Z,94.72
2022-11-12T18:01:12.060Z,95.12
2022-11-12T18:07:23.731Z,94.96
2022-11-12T18:13:35.641Z,95.62
2022-11-12T18:19:46.479Z,96.31
2022-11-12T18:25:57.480Z,95.68
2022-11-12T18:32:09.019Z,95.15
2022-11-12T18:38:19.529Z,95.24
2022-11-12T18:44:31.661Z,95.14
2022-11-12T18:50:43.492Z,94.40
2022-11-12T18:56:54.718Z,94.55
2022-11-12T19:03:05.719Z,94.31
2022-11-12T19:09:18.066Z,93.31
2022-11-12T19:15:34.340Z,93.72
2022-11-12T19:21:45.744Z,93.29
2022-11-12T19:27:56.891Z,92.72
2022-11-12T19:34:09.040Z,92.60
2022-11-12T19:40:21.300Z,92.19
2022-11-12T19:46:33.362Z,91.99
2022-11-12T19:52:45.970Z,92.33
2022-11-12T19:58:56.920Z,91.78
2022-11-12T20:05:08.169Z,91.86
2022-11-12T20:11:20.603Z,91.14
2022-11-12T20:17:33.980Z,91.07
2022-11-12T20:23:45.949Z,90.99
2022-11-12T20:29:57.873Z,91.51
2022-11-12T20:36:15.490Z,91.26
2022-11-12T20:42:26.789Z,91.32
2022-11-12T20:48:42.795Z,90.68
2022-11-12T20:54:56.560Z,90.01
2022-11-12T21:01:11.821Z,90.70
2022-11-12T21:07:23.086Z,89.76
2022-11-12T21:13:37.040Z,90.36
2022-11-12T21:19:49.095Z,89.82
2022-11-12T21:26:21.957Z,90.64
2022-11-12T21:32:33.126Z,89.66
2022-11-12T21:38:44.778Z,89.37
2022-11-12T21:44:56.161Z,89.50
2022-11-12T21:51:11.738Z,90.15
2022-11-12T21:57:23.172Z,90.29
2022-11-12T22:03:34.301Z,90.44
2022-11-12T22:09:45.019Z,90.58
2022-11-12T22:15:56.555Z,89.82
2022-11-12T22:22:08.274Z,89.42
2022-11-12T22:28:19.007Z,89.29
2022-11-12T22:34:30.136Z,90.14
2022-11-12T22:40:42.126Z,89.94
2022-11-12T22:46:53.196Z,89.70
2022-11-12T22:53:04.170Z,90.09
2022-11-12T22:59:15.177Z,89.47
2022-11-12T23:05:27.175Z,89.14
2022-11-12T23:11:38.564Z,89.74
2022-11-12T23:17:50.148Z,89.39
2022-11-12T23:24:01.167Z,89.39
2022-11-12T23:30:12.787Z,90.38
2022-11-12T23:36:26.299Z,89.87
2022-11-12T23:42:37.206Z,90.31
2022-11-12T23:48:48.227Z,89.64
2022-11-12T23:54:59.295Z,89.68
